Pittsburg, NH

3:06 AM EST on December 03, 2016 (GMT -0500)
Pittsburg village | | Change Station

Elev 1362 ft 45.05 °N, 71.39 °W | Updated 55 seconds ago

Light Snow
Light Snow
30.6 °F
Feels Like 31 °F
N
1.0
Wind Variable Wind from West
Gusts 5.0 mph

Today
High -- | Low -- °F
--% Chance of Precip.
Yesterday
High -- | Low -- °F
Precip. -- in
Pressure 29.69 in
Visibility 7.0 miles
Clouds Overcast 9000 ft
Windchill 31 °F
Dew Point 29 °F
Humidity 94%
Rainfall 0.00 in
Snow Depth Not available.
7:06 AM 4:04 PM
Waxing Crescent, 13% visible
METAR KBML 030752Z AUTO 28008KT 7SM -SN OVC090 01/M02 A2966 RMK AO2 SNB22E32B35 SLP054 P0000 T00061022
Pressure 29.69 in
Visibility 7.0 miles
Clouds Overcast 9000 ft
Windchill 31 °F
Dew Point 29 °F
Humidity 94%
Rainfall 0.00 in
Snow Depth Not available.
7:06 AM 4:04 PM
Waxing Crescent, 13% visible
METAR KBML 030752Z AUTO 28008KT 7SM -SN OVC090 01/M02 A2966 RMK AO2 SNB22E32B35 SLP054 P0000 T00061022

10-Day Weather Forecast

Almanac

Astronomy

Dec. 03, 2016 Rise Set
Actual Time
Civil Twilight
Nautical Twilight
Astronomical Twilight
Moon
Length of Visible Light
Length of Day
Tomorrow will be .
, % of the Moon is Illuminated

Today's Extremes

State Highs State Lows

Community

WunderPhotos

Upload Photos

1,955,432 photos uploaded!

WunderBlog® & News

Nearby

Air Quality

  Air Quality AQ Index Pollutant
Not available.

Snow Depth

Station Depth Elevation

Earthquake Activity

City Distance Mag. Time & Date
Minimum magnitude displayed is 2.5.

Coastal Water Temperatures

Place Temperature

Stations

Nearby Weather Stations

Station Location Temp. Windchill Dew Point Humidity Wind Precip. Elev Updated Type
                   

Watches & Warnings

There are currently no watches in effect.